Hutchinson, MN (55350)

8:52 AM CDT on March 23, 2017 (GMT -0500)
The Minnesota Website Company | | Change Station

Elev 1047 ft 44.89 °N, 94.37 °W | Updated 8 seconds ago

Overcast
Overcast
37.2 °F
Feels Like 37 °F
N
2.7
Wind Variable Wind from NE
Gusts 4.9 mph

Today
High -- | Low -- °F
--% Chance of Precip.
Yesterday
High -- | Low -- °F
Precip. -- in
Pressure 30.06 in
Visibility 10.0 miles
Clouds Overcast 4400 ft
Windchill 37 °F
Dew Point 21 °F
Humidity 52%
Rainfall 0.00 in
Snow Depth Not available.
7:14 AM 7:34 PM
Waning Crescent, 23% visible
METAR KHCD 231333Z AUTO 13012G17KT 10SM OVC044 03/M03 A3006 RMK AO2 T00261032
Pressure 30.06 in
Visibility 10.0 miles
Clouds Overcast 4400 ft
Windchill 37 °F
Dew Point 21 °F
Humidity 52%
Rainfall 0.00 in
Snow Depth Not available.
7:14 AM 7:34 PM
Waning Crescent, 23% visible
METAR KHCD 231333Z AUTO 13012G17KT 10SM OVC044 03/M03 A3006 RMK AO2 T00261032

Get Severe Weather Alerts

Thanks for signing up!

Be on the lookout for a verification email in your inbox.

You'll start receiving the daily forecast at 8 AM.

×

10-Day Weather Forecast

Almanac

Astronomy

Mar. 23, 2017 Rise Set
Actual Time
Civil Twilight
Nautical Twilight
Astronomical Twilight
Moon
Length of Visible Light
Length of Day
Tomorrow will be .
, % of the Moon is Illuminated

Today's Extremes

State Highs State Lows

Community

WunderPhotos

Upload Photos

1,962,540 photos uploaded!

WunderBlog® & News

Nearby

Air Quality

  Air Quality AQ Index Pollutant
Not available.

Snow Depth

Station Depth Elevation

Earthquake Activity

City Distance Mag. Time & Date
Minimum magnitude displayed is 2.5.

Earthquake Activity

City Distance Mag. Time & Date
Minimum magnitude displayed is 2.5.

Coastal Water Temperatures

Place Temperature

Stations

Nearby Weather Stations

Station Location Temp. Windchill Dew Point Humidity Wind Precip. Elev Updated Type
                   

Watches & Warnings

There are currently no watches in effect.